Time;durP1;ratioP1;P1;durP2;ratioP2;P2;SDS_P1;SDS_P2;PMS_P1;PMS_P2;Temp;Humidity;BMP_temperature;BMP_pressure;BME280_temperature;BME280_humidity;BME280_pressure;Samples;Min_cycle;Max_cycle;Signal;HPM_P1;HPM_P2
2022/05/21 00:02:14;;;;;;;8.63;7.03;;;;;;;12.16;100.00;101882.44;6403016;23;20048;-67
2022/05/21 00:04:46;;;;;;;10.57;7.28;;;;;;;12.15;100.00;101883.38;6401268;23;20109;-68
2022/05/21 00:07:17;;;;;;;9.98;7.65;;;;;;;12.19;100.00;101892.69;6403044;23;20010;-68
2022/05/21 00:09:48;;;;;;;11.43;7.05;;;;;;;12.15;100.00;101886.84;6402972;23;20005;-68
2022/05/21 00:12:20;;;;;;;8.32;6.63;;;;;;;12.22;100.00;101891.63;6402969;23;20024;-68
2022/05/21 00:14:52;;;;;;;7.35;6.57;;;;;;;12.20;100.00;101896.16;6403214;23;20006;-68
2022/05/21 00:17:24;;;;;;;9.18;6.47;;;;;;;12.21;100.00;101896.06;6403539;23;20005;-69
2022/05/21 00:19:55;;;;;;;7.40;6.07;;;;;;;12.20;100.00;101898.78;6403795;23;20068;-68
2022/05/21 00:22:27;;;;;;;7.10;6.22;;;;;;;12.13;100.00;101885.28;6404893;23;20010;-68
2022/05/21 00:24:58;;;;;;;7.32;5.93;;;;;;;12.12;100.00;101892.34;6404635;23;20009;-67
2022/05/21 00:27:29;;;;;;;9.18;5.95;;;;;;;12.08;100.00;101884.78;6404777;23;20009;-68
2022/05/21 00:30:01;;;;;;;7.95;5.30;;;;;;;12.11;100.00;101892.44;6405076;23;20005;-68
2022/05/21 00:32:32;;;;;;;8.07;5.72;;;;;;;12.09;100.00;101894.34;6405168;23;19998;-68
2022/05/21 00:35:04;;;;;;;7.75;5.13;;;;;;;12.10;100.00;101893.41;6405321;23;20425;-68
2022/05/21 00:37:35;;;;;;;10.10;6.15;;;;;;;12.09;100.00;101903.06;6404032;23;20409;-68
2022/05/21 00:40:07;;;;;;;10.07;5.22;;;;;;;12.10;100.00;101902.09;6405088;23;20356;-67
2022/05/21 00:42:45;;;;;;;7.32;4.43;;;;;;;12.21;100.00;101905.75;6405148;23;20024;-68
2022/05/21 00:45:17;;;;;;;7.25;4.80;;;;;;;12.15;100.00;101901.75;6404022;23;20013;-68
2022/05/21 00:47:48;;;;;;;5.90;4.57;;;;;;;12.18;100.00;101897.13;6405264;23;20020;-69
2022/05/21 00:50:24;;;;;;;5.93;4.43;;;;;;;12.26;100.00;101903.59;6405069;23;20044;-67
2022/05/21 00:52:57;;;;;;;8.90;4.45;;;;;;;12.26;100.00;101909.69;6405312;23;20386;-69
2022/05/21 00:55:34;;;;;;;7.65;4.10;;;;;;;12.32;100.00;101908.41;6403888;23;20437;-69
2022/05/21 01:01:01;;;;;;;7.47;4.25;;;;;;;12.33;100.00;101907.44;6404820;23;20302;-68
2022/05/21 01:03:32;;;;;;;7.20;3.70;;;;;;;12.37;100.00;101901.81;6404430;23;20021;-68
2022/05/21 01:06:04;;;;;;;5.78;3.72;;;;;;;12.37;100.00;101906.25;6404056;23;20021;-68
2022/05/21 01:08:37;;;;;;;6.57;3.90;;;;;;;12.35;100.00;101890.59;6405140;23;20006;-68
2022/05/21 01:11:14;;;;;;;8.07;3.70;;;;;;;12.44;100.00;101896.13;6404489;23;20009;-68
2022/05/21 01:13:48;;;;;;;8.48;4.00;;;;;;;12.45;100.00;101905.66;6404720;23;20008;-68
2022/05/21 01:16:20;;;;;;;7.50;3.78;;;;;;;12.36;100.00;101894.91;6404636;23;20105;-68
2022/05/21 01:18:51;;;;;;;8.43;3.90;;;;;;;12.44;100.00;101890.84;6404534;23;20434;-68
2022/05/21 01:21:23;;;;;;;6.95;3.50;;;;;;;12.48;100.00;101900.19;6404235;23;20005;-68
2022/05/21 01:23:54;;;;;;;6.82;3.15;;;;;;;12.49;100.00;101901.84;6404703;23;20010;-68
2022/05/21 01:26:27;;;;;;;7.15;3.50;;;;;;;12.52;100.00;101899.84;6404665;23;20005;-69
2022/05/21 01:28:59;;;;;;;6.57;3.43;;;;;;;12.55;100.00;101898.78;6403114;23;20429;-69
2022/05/21 01:31:32;;;;;;;7.60;3.10;;;;;;;12.54;100.00;101892.69;6404941;23;20242;-69
2022/05/21 01:34:04;;;;;;;6.22;3.42;;;;;;;12.56;100.00;101896.00;6404387;23;20345;-69
2022/05/21 01:36:35;;;;;;;5.45;3.20;;;;;;;12.53;100.00;101888.34;6405162;23;20005;-69
2022/05/21 01:39:06;;;;;;;5.97;3.00;;;;;;;12.57;100.00;101891.59;6403626;23;20063;-68
2022/05/21 01:41:44;;;;;;;7.95;3.13;;;;;;;12.56;100.00;101882.88;6404053;23;20005;-69
2022/05/21 01:47:11;;;;;;;4.63;3.00;;;;;;;12.62;100.00;101890.28;6404227;23;20017;-69
2022/05/21 01:49:43;;;;;;;5.78;2.42;;;;;;;12.58;100.00;101888.03;6404384;23;20009;-69
2022/05/21 01:52:14;;;;;;;7.18;3.42;;;;;;;12.58;100.00;101874.88;6404718;23;19998;-69
2022/05/21 01:54:46;;;;;;;7.47;3.33;;;;;;;12.50;100.00;101866.72;6377636;23;20009;-69
2022/05/21 01:57:17;;;;;;;10.50;3.10;;;;;;;12.61;100.00;101887.75;6403723;23;20096;-69
2022/05/21 01:59:48;;;;;;;6.40;3.45;;;;;;;12.57;100.00;101887.16;6404553;23;20333;-69
2022/05/21 02:02:20;;;;;;;6.90;3.70;;;;;;;12.60;100.00;101876.41;6402534;23;20002;-68
2022/05/21 02:04:52;;;;;;;9.65;3.38;;;;;;;12.68;100.00;101883.72;6403520;23;20008;-69
2022/05/21 02:07:23;;;;;;;7.13;3.40;;;;;;;12.66;100.00;101889.09;6402861;23;20021;-69
2022/05/21 02:09:54;;;;;;;6.18;3.63;;;;;;;12.73;100.00;101893.88;6403779;23;20044;-69
2022/05/21 02:12:27;;;;;;;6.53;2.97;;;;;;;12.72;100.00;101889.56;6403137;23;20449;-69
2022/05/21 02:14:58;;;;;;;8.00;3.22;;;;;;;12.76;100.00;101898.91;6403045;23;20009;-69
2022/05/21 02:17:29;;;;;;;10.68;3.20;;;;;;;12.72;100.00;101895.66;6404236;23;20055;-68
2022/05/21 02:20:01;;;;;;;7.95;2.88;;;;;;;12.76;100.00;101896.25;6404291;23;20009;-68
2022/05/21 02:22:32;;;;;;;8.30;3.50;;;;;;;12.75;100.00;101898.06;6404209;23;20010;-68
2022/05/21 02:25:05;;;;;;;8.48;3.10;;;;;;;12.75;100.00;101897.22;6404036;23;20005;-68
2022/05/21 02:27:36;;;;;;;7.20;3.10;;;;;;;12.77;100.00;101898.78;6403684;23;20005;-69
2022/05/21 02:30:08;;;;;;;7.50;3.22;;;;;;;12.75;100.00;101894.59;6403743;23;20244;-69
2022/05/21 02:32:39;;;;;;;9.55;3.60;;;;;;;12.76;100.00;101896.25;6404094;23;20449;-67
2022/05/21 02:35:11;;;;;;;6.68;3.20;;;;;;;12.74;100.00;101893.78;6404076;23;20411;-70
2022/05/21 02:40:33;;;;;;;7.22;2.92;;;;;;;12.77;100.00;101887.44;6403417;23;20017;-68
2022/05/21 02:43:04;;;;;;;9.23;3.22;;;;;;;12.75;100.00;101890.19;6404273;23;20433;-69
2022/05/21 02:45:36;;;;;;;9.10;3.45;;;;;;;12.81;100.00;101888.88;6402957;23;20322;-67
2022/05/21 02:48:07;;;;;;;7.30;3.40;;;;;;;12.75;100.00;101886.72;6377149;23;20473;-69
2022/05/21 02:50:38;;;;;;;7.88;3.80;;;;;;;12.76;100.00;101891.00;6404090;23;20397;-69
2022/05/21 02:53:17;;;;;;;8.80;3.75;;;;;;;12.80;100.00;101897.69;6403982;23;20002;-69
2022/05/21 02:55:51;;;;;;;10.45;3.67;;;;;;;12.77;100.00;101896.16;6403229;23;20009;-68
2022/05/21 02:58:22;;;;;;;7.38;3.22;;;;;;;12.76;100.00;101891.84;6403833;23;20452;-67
2022/05/21 03:00:53;;;;;;;9.82;4.13;;;;;;;12.77;100.00;101892.72;6403274;23;20006;-69
2022/05/21 03:03:25;;;;;;;9.55;3.45;;;;;;;12.71;100.00;101893.16;6402964;23;20033;-68
2022/05/21 03:05:57;;;;;;;9.20;3.92;;;;;;;12.73;100.00;101897.38;6403287;23;20028;-68
2022/05/21 03:11:28;;;;;;;11.45;4.07;;;;;;;12.74;100.00;101901.66;6324553;23;20021;-68
2022/05/21 03:14:00;;;;;;;6.70;3.70;;;;;;;12.76;100.00;101893.63;6403668;23;20334;-68
2022/05/21 03:16:31;;;;;;;8.30;3.78;;;;;;;12.77;100.00;101897.97;6403722;23;20311;-68
2022/05/21 03:19:02;;;;;;;9.43;3.83;;;;;;;12.77;100.00;101895.34;6403102;23;20470;-69
2022/05/21 03:21:34;;;;;;;9.60;4.50;;;;;;;12.73;100.00;101889.47;6403312;23;20005;-69
2022/05/21 03:24:05;;;;;;;9.65;4.88;;;;;;;12.72;100.00;101893.03;6404200;23;20333;-68
2022/05/21 03:26:37;;;;;;;7.97;4.07;;;;;;;12.74;100.00;101895.56;6404112;23;20010;-69
2022/05/21 03:29:08;;;;;;;12.10;5.00;;;;;;;12.73;100.00;101880.72;6403123;23;20033;-69
2022/05/21 03:31:39;;;;;;;10.63;3.83;;;;;;;12.81;100.00;101891.50;6403685;23;20003;-68
2022/05/21 03:34:11;;;;;;;12.45;4.60;;;;;;;12.81;100.00;101894.13;6403486;23;20063;-69
2022/05/21 03:36:42;;;;;;;7.82;4.43;;;;;;;12.79;100.00;101894.25;6377789;23;20028;-69
2022/05/21 03:39:13;;;;;;;9.23;4.50;;;;;;;12.78;100.00;101897.00;6403383;23;20344;-69
2022/05/21 03:41:45;;;;;;;9.60;4.40;;;;;;;12.71;100.00;101883.47;6404007;23;20434;-69
2022/05/21 03:44:16;;;;;;;11.43;4.35;;;;;;;12.75;100.00;101894.59;6403080;23;20493;-69
2022/05/21 03:46:47;;;;;;;11.90;4.35;;;;;;;12.69;100.00;101890.66;6403254;23;20005;-68
2022/05/21 03:49:19;;;;;;;8.52;3.83;;;;;;;12.75;100.00;101903.31;6403931;23;20105;-68
2022/05/21 03:51:50;;;;;;;8.57;4.15;;;;;;;12.73;100.00;101900.00;6403635;23;20001;-69
2022/05/21 03:54:23;;;;;;;11.23;4.32;;;;;;;12.80;100.00;101909.06;6403987;23;20333;-68
2022/05/21 03:56:55;;;;;;;10.40;4.10;;;;;;;12.77;100.00;101904.06;6405241;23;20294;-69
2022/05/21 03:59:26;;;;;;;10.18;4.05;;;;;;;12.80;100.00;101910.84;6405610;23;20067;-69
2022/05/21 04:01:57;;;;;;;8.73;4.45;;;;;;;12.80;100.00;101908.22;6403556;23;20024;-69
2022/05/21 04:04:28;;;;;;;8.75;4.38;;;;;;;12.83;100.00;101913.25;6404511;23;20001;-69
2022/05/21 04:07:00;;;;;;;12.48;5.13;;;;;;;12.83;100.00;101906.19;6404187;23;20017;-67
2022/05/21 04:09:31;;;;;;;12.52;4.57;;;;;;;12.81;100.00;101909.91;6405416;23;20340;-69
2022/05/21 04:12:03;;;;;;;11.98;5.03;;;;;;;12.82;100.00;101925.56;6404705;23;20021;-69
2022/05/21 04:14:34;;;;;;;9.45;4.85;;;;;;;12.82;100.00;101924.72;6404760;23;20056;-69
2022/05/21 04:17:10;;;;;;;13.15;4.90;;;;;;;12.83;100.00;101921.97;6405683;23;20012;-69
2022/05/21 04:19:42;;;;;;;9.32;4.30;;;;;;;12.82;100.00;101920.31;6405229;23;20009;-69
2022/05/21 04:22:14;;;;;;;16.25;6.05;;;;;;;12.78;100.00;101931.19;6405350;23;20024;-69
2022/05/21 04:24:45;;;;;;;12.95;4.70;;;;;;;12.80;100.00;101918.75;6405280;23;20005;-69
2022/05/21 04:27:16;;;;;;;11.00;4.97;;;;;;;12.81;100.00;101926.53;6404836;23;20432;-70
2022/05/21 04:29:47;;;;;;;11.63;5.40;;;;;;;12.78;100.00;101926.75;6405740;23;20440;-70
2022/05/21 04:32:19;;;;;;;13.82;5.30;;;;;;;12.87;100.00;101935.72;6404781;23;20013;-68
2022/05/21 04:34:50;;;;;;;12.07;4.85;;;;;;;12.89;100.00;101939.91;6404855;23;20009;-69
2022/05/21 04:37:22;;;;;;;14.95;5.68;;;;;;;12.94;100.00;101938.72;6405392;23;20010;-68
2022/05/21 04:39:53;;;;;;;13.68;5.63;;;;;;;12.91;100.00;101940.63;6404633;23;20420;-69
2022/05/21 04:42:25;;;;;;;12.00;5.40;;;;;;;12.90;100.00;101943.38;6405382;23;20037;-68
2022/05/21 04:44:56;;;;;;;12.45;6.25;;;;;;;12.89;100.00;101945.19;6404727;23;20024;-66
2022/05/21 04:47:27;;;;;;;17.08;6.72;;;;;;;12.87;100.00;101938.34;6405332;23;20380;-68
2022/05/21 04:49:58;;;;;;;17.08;6.50;;;;;;;12.97;100.00;101941.13;6404922;23;20001;-68
2022/05/21 04:52:30;;;;;;;15.80;6.35;;;;;;;12.94;100.00;101950.06;6404089;23;20002;-70
2022/05/21 04:55:06;;;;;;;9.77;5.43;;;;;;;12.96;100.00;101944.72;6404608;23;20013;-68
2022/05/21 04:57:37;;;;;;;12.75;6.20;;;;;;;12.94;100.00;101946.63;6404598;23;20041;-67
2022/05/21 05:00:09;;;;;;;15.35;6.72;;;;;;;12.98;100.00;101941.00;6405283;23;20012;-68
2022/05/21 05:02:41;;;;;;;13.38;6.90;;;;;;;13.00;100.00;101952.25;6405045;23;20381;-69
2022/05/21 05:05:13;;;;;;;15.82;7.13;;;;;;;13.04;100.00;101958.13;6403861;23;20013;-71
2022/05/21 05:07:44;;;;;;;15.65;7.63;;;;;;;13.04;100.00;101950.22;6404674;23;20005;-69
2022/05/21 05:10:16;;;;;;;19.00;8.25;;;;;;;13.07;100.00;101952.63;6404356;23;20012;-68
2022/05/21 05:12:47;;;;;;;13.77;7.20;;;;;;;13.19;100.00;101959.56;6404698;23;20336;-68
2022/05/21 05:15:19;;;;;;;13.75;8.35;;;;;;;13.26;100.00;101954.66;6403914;23;20060;-68
2022/05/21 05:17:50;;;;;;;14.93;8.30;;;;;;;13.26;100.00;101966.03;6404843;23;20064;-67
2022/05/21 05:20:21;;;;;;;17.73;7.97;;;;;;;13.30;100.00;101959.59;6404258;23;20010;-68
2022/05/21 05:22:53;;;;;;;16.63;7.85;;;;;;;13.26;100.00;101966.03;6401110;23;20036;-68
2022/05/21 05:25:24;;;;;;;16.92;7.95;;;;;;;13.30;100.00;101971.91;6403536;23;20066;-68
2022/05/21 05:27:56;;;;;;;16.17;8.07;;;;;;;13.34;100.00;101968.06;6404757;23;20027;-68
2022/05/21 05:30:27;;;;;;;19.17;8.20;;;;;;;13.35;100.00;101973.19;6403446;23;20044;-68
2022/05/21 05:32:59;;;;;;;16.38;9.13;;;;;;;13.37;100.00;101976.56;6403962;23;20006;-68
2022/05/21 05:35:31;;;;;;;15.45;8.32;;;;;;;13.38;100.00;101977.41;6404536;23;20033;-68
2022/05/21 05:38:07;;;;;;;17.40;10.10;;;;;;;13.48;100.00;101977.50;6403599;23;20005;-69
2022/05/21 05:40:41;;;;;;;17.58;9.05;;;;;;;13.52;100.00;101984.19;6404020;23;20120;-66
2022/05/21 05:43:16;;;;;;;13.63;8.65;;;;;;;13.49;100.00;101968.66;6403172;23;20092;-68
2022/05/21 05:45:53;;;;;;;17.63;8.02;;;;;;;13.63;100.00;101982.38;6378059;23;20596;-67
2022/05/21 05:48:26;;;;;;;16.75;8.65;;;;;;;13.72;100.00;101988.72;6403730;23;20009;-69
2022/05/21 05:50:59;;;;;;;16.85;7.95;;;;;;;13.73;100.00;101985.13;6404307;23;20420;-68
2022/05/21 05:53:30;;;;;;;17.52;9.10;;;;;;;13.69;100.00;101972.34;6404190;23;20012;-66
2022/05/21 05:56:01;;;;;;;21.88;10.57;;;;;;;13.67;100.00;101985.59;6403079;23;20009;-69
2022/05/21 06:01:23;;;;;;;20.52;10.07;;;;;;;13.76;100.00;101991.97;6402356;23;20427;-68
2022/05/21 06:03:55;;;;;;;18.05;10.48;;;;;;;13.71;100.00;102000.19;6401362;23;20009;-69
2022/05/21 06:06:26;;;;;;;17.42;10.43;;;;;;;13.74;100.00;101993.84;6403932;23;20534;-70
2022/05/21 06:08:58;;;;;;;20.55;10.65;;;;;;;13.80;100.00;101999.47;6404307;23;20495;-68
2022/05/21 06:11:33;;;;;;;15.27;9.43;;;;;;;13.85;100.00;101986.78;6404635;23;20085;-70
2022/05/21 06:14:05;;;;;;;19.83;11.07;;;;;;;13.97;100.00;102000.75;6404061;23;20021;-69
2022/05/21 06:16:36;;;;;;;16.43;11.07;;;;;;;14.10;100.00;101992.69;6403246;23;20013;-69
2022/05/21 06:19:07;;;;;;;20.05;11.00;;;;;;;14.22;100.00;101994.31;6402400;23;20032;-70
2022/05/21 06:21:39;;;;;;;15.93;10.50;;;;;;;14.26;100.00;101998.38;6404176;23;20056;-69
2022/05/21 06:24:10;;;;;;;18.30;10.50;;;;;;;14.22;100.00;101999.59;6403881;23;20020;-69
2022/05/21 06:26:41;;;;;;;19.70;10.52;;;;;;;14.19;100.00;102006.91;6404046;23;20289;-69
2022/05/21 06:29:12;;;;;;;22.50;11.07;;;;;;;14.11;100.00;102004.91;6403380;23;20061;-68
2022/05/21 06:31:44;;;;;;;22.10;11.10;;;;;;;14.23;100.00;102008.34;6378071;23;20043;-69
2022/05/21 06:34:15;;;;;;;19.95;10.80;;;;;;;14.34;100.00;102017.03;6403641;23;20029;-69
2022/05/21 06:36:46;;;;;;;19.17;11.45;;;;;;;14.60;100.00;102003.53;6403117;23;20009;-69
2022/05/21 06:39:18;;;;;;;22.98;12.35;;;;;;;14.73;100.00;102016.53;6403919;23;20408;-69
2022/05/21 06:41:49;;;;;;;18.17;11.45;;;;;;;14.93;100.00;102006.97;6403965;23;20005;-69
2022/05/21 06:44:20;;;;;;;19.83;11.32;;;;;;;15.14;100.00;102004.28;6402880;23;20036;-69
2022/05/21 06:46:52;;;;;;;18.63;10.73;;;;;;;15.32;100.00;102024.66;6403236;23;20416;-70
2022/05/21 06:49:30;;;;;;;20.00;9.85;;;;;;;15.27;100.00;102018.94;5283309;27;20905;-69
2022/05/21 06:52:02;;;;;;;21.33;10.98;;;;;;;15.33;100.00;102025.47;5269987;28;20036;-69
2022/05/21 06:54:33;;;;;;;20.90;10.40;;;;;;;15.21;100.00;102014.19;5270201;28;20037;-69
2022/05/21 06:57:08;;;;;;;20.80;10.65;;;;;;;15.27;100.00;102018.94;5272347;28;20052;-68
2022/05/21 06:59:39;;;;;;;20.00;11.40;;;;;;;15.19;100.00;102021.41;5270828;28;20121;-68
2022/05/21 07:02:11;;;;;;;20.95;11.38;;;;;;;15.11;100.00;102025.66;5287431;22;20106;-69
2022/05/21 07:07:35;;;;;;;19.60;12.15;;;;;;;15.13;100.00;102036.94;5282192;28;20036;-72
2022/05/21 07:10:09;;;;;;;23.50;12.57;;;;;;;15.12;100.00;102035.25;5282474;28;20035;-70
2022/05/21 07:12:41;;;;;;;22.45;12.57;;;;;;;15.12;100.00;102040.53;5288449;28;20025;-70
2022/05/21 07:15:13;;;;;;;20.77;12.25;;;;;;;15.13;100.00;102040.41;5279459;28;20428;-70
2022/05/21 07:17:45;;;;;;;19.95;13.52;;;;;;;15.28;100.00;102044.38;5282376;28;20016;-71
2022/05/21 07:20:21;;;;;;;20.95;12.07;;;;;;;15.35;100.00;102051.78;5284556;28;20033;-70
2022/05/21 07:22:53;;;;;;;25.15;12.38;;;;;;;15.33;100.00;102055.34;5281931;28;20023;-70
2022/05/21 07:25:27;;;;;;;17.65;11.27;;;;;;;15.46;100.00;102059.59;5275445;28;20106;-70
2022/05/21 07:27:59;;;;;;;17.90;11.00;;;;;;;15.54;100.00;102057.13;5277846;28;20033;-70
2022/05/21 07:30:31;;;;;;;29.77;12.65;;;;;;;15.54;100.00;102057.97;5280069;28;20032;-69
2022/05/21 07:33:02;;;;;;;19.38;10.95;;;;;;;15.70;100.00;102057.50;5284313;28;20603;-70
2022/05/21 07:35:36;;;;;;;16.73;11.02;;;;;;;15.84;100.00;102058.94;5279956;28;20032;-70
2022/05/21 07:38:09;;;;;;;21.88;11.77;;;;;;;15.97;100.00;102045.47;5277421;28;20040;-70
2022/05/21 07:40:42;;;;;;;20.98;11.15;;;;;;;15.93;100.00;102050.19;5274970;28;20086;-70
2022/05/21 07:43:17;;;;;;;20.33;11.30;;;;;;;15.99;100.00;102051.47;5276854;28;20492;-70
2022/05/21 07:45:49;;;;;;;21.55;10.70;;;;;;;16.08;100.00;102057.75;5282013;28;20071;-69
2022/05/21 07:48:21;;;;;;;19.80;11.85;;;;;;;16.36;100.00;102061.38;5273933;28;20031;-70
2022/05/21 07:50:59;;;;;;;18.92;11.80;;;;;;;16.68;100.00;102063.78;5276677;28;20493;-70
2022/05/21 07:53:34;;;;;;;18.90;11.05;;;;;;;16.83;100.00;102065.03;5278370;28;20489;-70
2022/05/21 07:56:10;;;;;;;16.65;10.80;;;;;;;16.87;100.00;102060.31;5282141;28;20028;-70
2022/05/21 07:58:43;;;;;;;18.95;10.45;;;;;;;16.91;100.00;102051.09;5277799;28;20031;-70
2022/05/21 08:01:14;;;;;;;15.70;9.10;;;;;;;17.05;100.00;102055.94;5264605;28;20039;-70
2022/05/21 08:03:46;;;;;;;23.17;9.10;;;;;;;17.01;100.00;102062.50;5267777;28;20021;-70
2022/05/21 08:06:18;;;;;;;19.20;9.02;;;;;;;16.90;100.00;102073.25;5264651;28;20029;-70
2022/05/21 08:08:52;;;;;;;16.65;8.13;;;;;;;16.86;100.00;102075.34;5265526;28;20028;-70
2022/05/21 08:11:24;;;;;;;15.65;8.07;;;;;;;17.07;100.00;102076.97;5268166;28;20028;-70
2022/05/21 08:13:55;;;;;;;17.27;8.40;;;;;;;17.25;100.00;102084.03;5266353;28;20081;-70
2022/05/21 08:16:29;;;;;;;19.48;9.10;;;;;;;17.42;100.00;102073.66;5268387;28;20032;-70
2022/05/21 08:19:01;;;;;;;18.33;9.07;;;;;;;17.61;100.00;102075.41;5268669;28;20461;-70
2022/05/21 08:21:32;;;;;;;19.58;9.40;;;;;;;17.83;100.00;102077.72;5266672;28;20535;-70
2022/05/21 08:26:57;;;;;;;20.52;9.65;;;;;;;18.08;100.00;102080.66;5269757;28;20045;-70
2022/05/21 08:29:32;;;;;;;16.85;9.13;;;;;;;18.31;100.00;102078.41;5265226;28;20139;-70
2022/05/21 08:32:05;;;;;;;18.10;9.00;;;;;;;18.12;100.00;102080.19;5268668;28;20111;-70
2022/05/21 08:34:36;;;;;;;15.13;8.70;;;;;;;18.46;100.00;102084.84;5267988;28;20037;-70
2022/05/21 08:37:07;;;;;;;13.45;8.45;;;;;;;18.39;100.00;102087.28;5267241;28;20036;-70
2022/05/21 08:39:39;;;;;;;16.30;8.43;;;;;;;18.31;100.00;102089.03;5267654;28;20070;-70
2022/05/21 08:42:28;;;;;;;14.75;8.68;;;;;;;18.30;100.00;102082.88;5267061;28;20477;-70
2022/05/21 08:45:21;;;;;;;16.13;8.18;;;;;;;18.37;100.00;102085.75;5264137;28;20473;-70
2022/05/21 08:48:02;;;;;;;16.42;9.05;;;;;;;18.38;100.00;102085.59;5269006;28;20125;-70
2022/05/21 08:50:43;;;;;;;15.40;8.75;;;;;;;18.21;100.00;102081.09;5266781;28;20402;-71
2022/05/21 08:53:20;;;;;;;15.85;8.80;;;;;;;18.18;100.00;102084.91;5266858;28;20038;-70
2022/05/21 08:55:58;;;;;;;15.20;9.18;;;;;;;18.20;100.00;102082.09;5267008;28;20379;-70
2022/05/21 08:58:41;;;;;;;15.30;8.52;;;;;;;18.09;100.00;102083.16;5269868;28;20032;-70
2022/05/21 09:01:18;;;;;;;16.50;8.77;;;;;;;18.27;100.00;102079.69;5266194;28;20033;-71
2022/05/21 09:03:53;;;;;;;15.25;7.15;;;;;;;18.33;100.00;102071.13;5265915;28;20461;-70
2022/05/21 09:06:46;;;;;;;13.57;7.97;;;;;;;18.63;100.00;102073.38;5266436;28;20025;-70
2022/05/21 09:09:39;;;;;;;15.50;7.45;;;;;;;18.61;100.00;102077.19;5267281;28;20056;-71
2022/05/21 09:12:21;;;;;;;;;;;;;;;19.17;100.00;102081.31;5265222;28;20036;-71
2022/05/21 09:14:58;;;;;;;16.17;7.30;;;;;;;18.84;100.00;102065.13;5262372;28;19916;-71
2022/05/21 09:17:30;;;;;;;15.88;7.38;;;;;;;19.00;100.00;102076.84;5268309;28;20021;-71
2022/05/21 09:20:05;;;;;;;17.87;7.40;;;;;;;19.25;100.00;102067.25;5267736;28;20027;-70
2022/05/21 09:22:36;;;;;;;15.27;6.18;;;;;;;19.05;100.00;102064.75;5257340;28;20182;-70
2022/05/21 09:25:20;;;;;;;11.27;5.70;;;;;;;19.32;100.00;102061.13;5267723;28;20464;-70
2022/05/21 09:28:10;;;;;;;11.68;5.55;;;;;;;19.30;100.00;102063.09;5268532;28;20519;-70
2022/05/21 09:30:56;;;;;;;12.32;5.63;;;;;;;19.07;100.00;102065.47;5264470;28;20032;-71
2022/05/21 09:33:33;;;;;;;10.82;5.55;;;;;;;19.05;100.00;102063.94;5279876;28;20057;-70
2022/05/21 09:36:06;;;;;;;12.48;5.05;;;;;;;19.15;100.00;102065.50;5260957;28;20025;-70
2022/05/21 09:38:52;;;;;;;10.57;4.95;;;;;;;19.39;100.00;102063.97;5259597;28;20033;-70
2022/05/21 09:41:27;;;;;;;12.65;5.43;;;;;;;19.41;100.00;102073.47;5258491;28;20093;-71
2022/05/21 09:47:15;;;;;;;13.93;4.72;;;;;;;19.02;100.00;102070.41;5261244;28;20028;-71
2022/05/21 09:50:10;;;;;;;15.10;5.35;;;;;;;18.68;100.00;102067.63;5259492;28;20089;-71
2022/05/21 09:52:43;;;;;;;9.35;4.28;;;;;;;18.36;100.00;102076.13;5263478;28;20099;-70
2022/05/21 09:55:24;;;;;;;11.45;4.95;;;;;;;18.76;100.00;102080.19;5259714;28;20658;-71
2022/05/21 09:58:13;;;;;;;12.43;5.22;;;;;;;18.99;100.00;102077.84;5254748;28;20033;-71
2022/05/21 10:00:53;;;;;;;12.05;4.72;;;;;;;19.06;100.00;102074.41;5255037;28;20036;-70
2022/05/21 10:03:45;;;;;;;13.23;4.38;;;;;;;19.43;100.00;102073.28;5260795;28;20408;-71
2022/05/21 10:06:19;;;;;;;12.13;5.28;;;;;;;19.20;100.00;102073.00;5257118;28;20079;-71
2022/05/21 10:12:04;;;;;;;12.25;5.57;;;;;;;19.24;100.00;102086.81;5259696;28;20464;-70
2022/05/21 10:14:41;;;;;;;11.15;5.28;;;;;;;19.36;100.00;102093.53;5264639;28;20043;-71
2022/05/21 10:17:39;;;;;;;13.10;6.57;;;;;;;19.47;100.00;102089.75;5263670;28;20032;-71
2022/05/21 10:20:18;;;;;;;12.73;5.40;;;;;;;19.38;100.00;102087.06;5255875;28;20021;-71
2022/05/21 10:23:23;;;;;;;11.15;5.97;;;;;;;19.28;100.00;102090.81;5264207;28;20757;-71
2022/05/21 10:26:09;;;;;;;14.60;8.23;;;;;;;19.16;100.00;102088.41;5263817;28;20033;-71
2022/05/21 10:28:54;;;;;;;11.38;7.30;;;;;;;19.06;100.00;102092.19;5267229;28;20032;-70
2022/05/21 10:31:42;;;;;;;16.35;7.90;;;;;;;19.40;100.00;102087.75;5264827;28;20037;-70
2022/05/21 10:34:25;;;;;;;18.60;7.82;;;;;;;19.26;100.00;102076.88;5264049;28;20036;-71
2022/05/21 10:37:23;;;;;;;13.32;6.00;;;;;;;19.78;100.00;102090.13;5265639;28;20055;-71
2022/05/21 10:40:07;;;;;;;10.13;4.90;;;;;;;19.71;100.00;102081.94;5261574;28;20140;-71
2022/05/21 10:42:53;;;;;;;9.20;4.68;;;;;;;19.85;100.00;102081.34;5272999;28;20037;-71
2022/05/21 10:45:33;;;;;;;10.15;4.57;;;;;;;20.01;100.00;102085.03;5264185;28;20032;-71
2022/05/21 10:48:23;;;;;;;8.15;4.63;;;;;;;20.15;100.00;102081.72;5266728;28;20458;-71
2022/05/21 10:51:01;;;;;;;11.60;5.22;;;;;;;19.96;100.00;102082.00;5264597;28;20017;-71
2022/05/21 10:54:04;;;;;;;13.25;4.82;;;;;;;20.01;100.00;102085.03;5265466;28;20028;-71
2022/05/21 10:56:56;;;;;;;11.77;3.85;;;;;;;20.11;100.00;102086.53;5255693;28;20021;-71
2022/05/21 10:59:33;;;;;;;9.25;3.45;;;;;;;20.33;100.00;102087.75;5257987;28;20016;-71
2022/05/21 11:02:37;;;;;;;12.30;3.58;;;;;;;20.51;100.00;102087.66;5264523;28;20122;-71
2022/05/21 11:05:11;;;;;;;6.45;2.90;;;;;;;20.00;100.00;102094.84;5262337;28;20052;-71
2022/05/21 11:07:45;;;;;;;9.82;3.75;;;;;;;20.44;100.00;102083.97;5266684;28;20044;-71
2022/05/21 11:10:30;;;;;;;10.63;3.40;;;;;;;20.71;100.00;102095.31;5273263;28;20032;-70
2022/05/21 11:13:18;;;;;;;7.88;3.33;;;;;;;20.69;100.00;102100.00;5264123;28;20025;-71
2022/05/21 11:16:03;;;;;;;5.55;3.00;;;;;;;20.61;100.00;102103.50;5263844;28;20552;-71
2022/05/21 11:18:57;;;;;;;9.18;4.15;;;;;;;21.11;100.00;102094.47;5260385;28;20040;-71
2022/05/21 11:21:36;;;;;;;12.38;4.18;;;;;;;20.69;100.00;102092.84;5255402;28;20024;-71
2022/05/21 11:24:13;;;;;;;8.48;3.15;;;;;;;20.92;100.00;102087.66;5265786;28;20044;-71
2022/05/21 11:26:59;;;;;;;7.75;3.00;;;;;;;20.96;100.00;102091.66;5264413;28;20034;-70
2022/05/21 11:29:39;;;;;;;8.27;2.90;;;;;;;20.83;100.00;102100.13;5262875;28;20068;-71
2022/05/21 11:38:22;;;;;;;10.75;3.63;;;;;;;21.21;100.00;102094.28;5270297;28;20055;-71
2022/05/21 11:41:29;;;;;;;10.30;3.03;;;;;;;21.29;100.00;102086.25;5267663;28;20029;-71
2022/05/21 11:44:59;;;;;;;10.73;3.15;;;;;;;21.61;100.00;102091.53;5267453;28;20397;-71
2022/05/21 11:47:37;;;;;;;7.63;3.10;;;;;;;21.64;100.00;102087.69;5249662;28;20320;-71
2022/05/21 11:50:17;;;;;;;9.88;2.90;;;;;;;21.81;100.00;102083.09;5274799;28;20032;-71
2022/05/21 11:52:56;;;;;;;7.85;3.13;;;;;;;21.67;100.00;102081.16;5269188;28;20100;-71
2022/05/21 11:55:30;;;;;;;6.40;2.83;;;;;;;21.78;100.00;102080.78;5270164;28;20561;-71
2022/05/21 11:58:05;;;;;;;8.18;3.25;;;;;;;21.84;100.00;102085.44;5268958;28;20028;-71
2022/05/21 12:00:43;;;;;;;9.50;4.03;;;;;;;21.88;100.00;102075.25;5258165;28;20024;-71
2022/05/21 12:03:16;;;;;;;10.02;2.58;;;;;;;21.67;100.00;102075.81;5266751;28;20046;-71
2022/05/21 12:05:53;;;;;;;8.52;3.58;;;;;;;21.78;100.00;102078.09;5269978;28;20033;-71
2022/05/21 12:08:29;;;;;;;8.70;3.05;;;;;;;21.96;100.00;102078.69;5266870;28;20912;-71
2022/05/21 12:11:06;;;;;;;63.13;34.08;;;;;;;22.18;100.00;102070.94;5269117;28;20099;-71
2022/05/21 12:13:40;;;;;;;12.10;5.40;;;;;;;22.22;100.00;102072.25;5270174;28;20125;-71
2022/05/21 12:16:20;;;;;;;8.07;3.20;;;;;;;22.35;100.00;102069.81;5268063;28;20516;-71
2022/05/21 12:18:58;;;;;;;9.57;3.10;;;;;;;22.22;100.00;102078.41;5266681;28;20052;-71
2022/05/21 12:21:30;;;;;;;7.13;2.75;;;;;;;21.76;99.33;102086.31;5267497;28;20033;-71